Abra del Mezquite, Mexico

5:28 PM CST on November 24, 2017 (GMT -0600)
Gen Mariano Escobedo International | | Change Station

Elev 1270 ft 25.78 °N, 100.10 °W | Updated 43 minutes ago

Clear
Clear
77 °F
Feels Like 77 °F
N
6
Wind Variable Wind from ESE

Today
High -- | Low -- °F
--% Chance of Precip.
Yesterday
High -- | Low -- °F
Precip. -- in
Pressure 29.89 in
Visibility 8.0 miles
Clouds Clear
Dew Point 34 °F
Humidity 21%
Rainfall 0.00 in
Snow Depth Not available.
7:02 AM 5:46 PM
Waxing Crescent, 34% visible
METAR MMMY 242245Z 12005KT 8SM SKC 25/01 A2989
Pressure 29.89 in
Visibility 8.0 miles
Clouds Clear
Dew Point 34 °F
Humidity 21%
Rainfall 0.00 in
Snow Depth Not available.
7:02 AM 5:46 PM
Waxing Crescent, 34% visible
METAR MMMY 242245Z 12005KT 8SM SKC 25/01 A2989

Get Severe Weather Alerts

Thanks for signing up!

Be on the lookout for a verification email in your inbox.

You'll start receiving the daily forecast at 6 AM.

×

10-Day Weather Forecast

No radar image for this location.
×

Almanac

Astronomy

Nov. 24, 2017 Rise Set
Actual Time
Civil Twilight
Nautical Twilight
Astronomical Twilight
Moon
Length of Visible Light
Length of Day
Tomorrow will be .
, % of the Moon is Illuminated

Today's Extremes

Country Highs Country Lows

Community

WunderPhotos

Category 6

Welcome to Category 6. This is the collective home for Weather Underground's featured writeups by Dr. Jeff Masters (right), Bob Henson (left), Chris Burt, and other regular contributors.

Nearby

Air Quality

  Air Quality AQ Index Pollutant
Not available.

Snow Depth

Station Depth Elevation

Earthquake Activity

City Distance Mag. Time & Date
Minimum magnitude displayed is 2.5.

Coastal Water Temperatures

Place Temperature

Stations

Nearby Weather Stations

Station Location Temp. Windchill Dew Point Humidity Wind Precip. Elev Updated Type